Time;durP1;ratioP1;P1;durP2;ratioP2;P2;SDS_P1;SDS_P2;PMS_P1;PMS_P2;Temp;Humidity;BMP_temperature;BMP_pressure;BME280_temperature;BME280_humidity;BME280_pressure;Samples;Min_cycle;Max_cycle;Signal;HPM_P1;HPM_P2
2023/12/15 00:00:55;;;;;;;31.25;19.13;;;;;;;4.32;87.40;99827.34;5089588;28;20507;-80
2023/12/15 00:03:21;;;;;;;38.10;20.42;;;;;;;4.33;87.88;99835.09;5073399;28;20119;-79
2023/12/15 00:05:46;;;;;;;37.90;20.45;;;;;;;4.41;86.79;99842.09;5082447;28;20066;-79
2023/12/15 00:08:11;;;;;;;31.48;19.38;;;;;;;4.32;88.06;99838.75;5087532;28;20032;-79
2023/12/15 00:10:37;;;;;;;31.85;18.13;;;;;;;4.41;88.01;99850.81;5087888;28;20580;-80
2023/12/15 00:13:02;;;;;;;33.22;18.33;;;;;;;4.31;87.93;99842.38;5089471;28;20851;-79
2023/12/15 00:15:27;;;;;;;34.75;19.33;;;;;;;4.36;87.63;99849.75;5087381;28;20028;-78
2023/12/15 00:17:53;;;;;;;32.70;19.42;;;;;;;4.22;87.92;99848.75;5086546;28;20028;-78
2023/12/15 00:20:18;;;;;;;38.33;19.27;;;;;;;4.38;87.65;99858.31;5082314;28;20039;-78
2023/12/15 00:22:43;;;;;;;36.78;18.73;;;;;;;4.40;87.60;99853.66;5085697;28;20080;-78
2023/12/15 00:25:09;;;;;;;29.88;17.48;;;;;;;4.19;87.78;99859.72;5085805;28;20078;-78
2023/12/15 00:27:34;;;;;;;37.33;19.45;;;;;;;4.13;89.32;99854.34;5088512;28;20047;-78
2023/12/15 00:29:59;;;;;;;38.95;19.35;;;;;;;4.35;87.96;99859.50;5082300;28;20035;-78
2023/12/15 00:32:25;;;;;;;35.95;19.55;;;;;;;4.28;88.35;99857.78;5085796;28;20066;-78
2023/12/15 00:34:50;;;;;;;33.33;19.05;;;;;;;4.36;88.27;99861.16;5085513;28;20037;-77
2023/12/15 00:37:15;;;;;;;32.50;18.38;;;;;;;4.30;87.91;99864.50;5081360;28;20036;-78
2023/12/15 00:39:41;;;;;;;36.35;18.95;;;;;;;4.33;88.47;99873.88;5086800;28;20036;-78
2023/12/15 00:42:06;;;;;;;38.53;20.85;;;;;;;4.14;88.37;99861.25;5085883;28;20048;-79
2023/12/15 00:44:34;;;;;;;37.97;19.27;;;;;;;4.29;89.04;99865.53;5089141;28;20028;-79
2023/12/15 00:47:00;;;;;;;36.72;19.85;;;;;;;4.30;87.89;99867.16;5082390;28;20031;-78
2023/12/15 00:49:26;;;;;;;34.50;19.02;;;;;;;4.31;87.81;99871.44;5085367;28;20033;-79
2023/12/15 00:51:51;;;;;;;34.55;19.35;;;;;;;4.29;88.12;99868.16;5088548;28;20032;-78
2023/12/15 00:54:17;;;;;;;45.95;22.63;;;;;;;4.22;88.57;99869.91;5083087;28;20111;-77
2023/12/15 00:56:42;;;;;;;45.05;21.70;;;;;;;4.07;89.07;99877.00;5070776;28;20089;-79
2023/12/15 00:59:08;;;;;;;37.92;21.05;;;;;;;4.29;88.95;99872.63;5070867;28;20111;-79
2023/12/15 01:01:33;;;;;;;39.92;20.92;;;;;;;4.24;88.70;99883.75;5088568;28;20081;-79
2023/12/15 01:03:58;;;;;;;41.83;20.85;;;;;;;4.09;89.07;99877.63;5085373;28;20040;-79
2023/12/15 01:06:24;;;;;;;43.35;22.02;;;;;;;4.07;88.27;99881.44;5070818;28;20095;-80
2023/12/15 01:08:49;;;;;;;40.08;19.52;;;;;;;4.15;88.95;99895.41;5086232;28;20052;-78
2023/12/15 01:11:14;;;;;;;41.05;21.50;;;;;;;4.12;88.70;99898.41;5092545;28;20024;-78
2023/12/15 01:13:40;;;;;;;34.90;18.35;;;;;;;4.26;88.74;99896.78;5083160;28;20493;-78
2023/12/15 01:16:06;;;;;;;39.63;21.13;;;;;;;4.17;87.95;99895.22;5095816;28;20031;-79
2023/12/15 01:18:31;;;;;;;41.03;22.33;;;;;;;4.03;87.64;99907.41;5073804;28;20036;-79
2023/12/15 01:20:57;;;;;;;46.00;22.95;;;;;;;4.14;89.09;99906.97;5092178;28;20048;-79
2023/12/15 01:23:22;;;;;;;40.28;20.30;;;;;;;4.23;88.97;99919.09;5088564;28;20028;-78
2023/12/15 01:25:47;;;;;;;43.38;22.40;;;;;;;3.98;87.92;99914.22;5089140;28;20369;-79
2023/12/15 01:28:13;;;;;;;44.13;22.92;;;;;;;4.07;89.08;99919.25;5095060;28;20046;-79
2023/12/15 01:30:38;;;;;;;38.92;20.33;;;;;;;4.19;89.08;99927.56;5091083;28;20033;-79
2023/12/15 01:33:03;;;;;;;47.15;23.17;;;;;;;4.00;88.61;99928.09;5088428;28;20028;-79
2023/12/15 01:35:29;;;;;;;42.08;21.70;;;;;;;4.20;88.57;99932.66;5088231;28;20033;-78
2023/12/15 01:37:54;;;;;;;39.03;19.90;;;;;;;4.15;89.28;99934.22;5085956;28;20104;-78
2023/12/15 01:40:19;;;;;;;40.50;21.20;;;;;;;4.18;88.83;99939.97;5088686;28;20074;-78
2023/12/15 01:42:46;;;;;;;42.83;20.92;;;;;;;4.16;88.63;99927.91;5089460;28;20028;-79
2023/12/15 01:45:12;;;;;;;48.20;23.15;;;;;;;4.21;88.80;99939.59;5068124;28;20130;-79
2023/12/15 01:47:37;;;;;;;48.03;21.80;;;;;;;4.04;88.80;99932.03;5089039;28;20039;-79
2023/12/15 01:50:03;;;;;;;44.97;22.33;;;;;;;4.16;88.74;99939.31;5082267;28;20048;-79
2023/12/15 01:52:28;;;;;;;43.47;21.52;;;;;;;4.21;88.94;99950.19;5092788;28;20024;-78
2023/12/15 01:54:54;;;;;;;41.45;20.35;;;;;;;4.19;88.75;99946.91;5088975;28;20077;-78
2023/12/15 01:57:19;;;;;;;40.83;21.33;;;;;;;4.19;88.90;99959.28;5082328;28;20039;-78
2023/12/15 01:59:49;;;;;;;46.80;22.92;;;;;;;4.10;88.91;99960.34;5085804;28;20150;-78
2023/12/15 02:02:15;;;;;;;50.10;22.95;;;;;;;4.18;89.00;99968.19;5087664;28;20028;-78
2023/12/15 02:04:40;;;;;;;46.40;21.80;;;;;;;4.17;89.43;99966.56;5084568;28;20028;-78
2023/12/15 02:07:06;;;;;;;47.95;22.42;;;;;;;4.09;87.60;99959.53;5090725;28;20412;-78
2023/12/15 02:09:31;;;;;;;39.08;20.77;;;;;;;4.16;88.65;99964.91;5087998;28;20032;-78
2023/12/15 02:11:57;;;;;;;43.85;22.50;;;;;;;4.23;88.51;99965.84;5085312;28;20032;-78
2023/12/15 02:14:23;;;;;;;49.20;23.27;;;;;;;3.98;87.23;99959.94;5089476;28;20106;-78
2023/12/15 02:16:48;;;;;;;50.08;23.85;;;;;;;3.72;87.74;99959.53;5057555;28;20059;-79
2023/12/15 02:19:13;;;;;;;48.78;22.73;;;;;;;3.88;89.45;99954.13;5093411;28;20024;-78
2023/12/15 02:21:39;;;;;;;47.47;22.15;;;;;;;3.96;89.01;99947.94;5085722;28;20028;-78
2023/12/15 02:24:04;;;;;;;53.70;25.00;;;;;;;4.01;88.52;99956.97;5086528;28;20029;-78
2023/12/15 02:26:30;;;;;;;48.70;23.15;;;;;;;3.67;89.12;99960.03;5091344;28;20024;-78
2023/12/15 02:28:55;;;;;;;46.10;22.23;;;;;;;3.76;90.16;99960.81;5087588;28;20477;-78
2023/12/15 02:31:21;;;;;;;50.97;25.02;;;;;;;3.65;90.59;99971.78;5084540;28;20427;-78
2023/12/15 02:33:47;;;;;;;50.03;24.15;;;;;;;3.76;90.15;99974.84;5085027;28;20089;-78
2023/12/15 02:36:23;;;;;;;51.90;24.23;;;;;;;3.58;90.18;99986.69;5066394;28;20037;-78
2023/12/15 02:38:49;;;;;;;49.63;23.42;;;;;;;3.84;90.21;99981.06;5088643;28;20020;-78
2023/12/15 02:41:15;;;;;;;50.53;24.05;;;;;;;4.03;90.20;99976.09;5091711;28;20146;-78
2023/12/15 02:43:41;;;;;;;52.13;24.13;;;;;;;3.97;89.17;99974.19;5090288;28;21969;-76
2023/12/15 02:46:06;;;;;;;42.90;22.10;;;;;;;4.01;89.49;99974.63;5087870;28;20032;-77
2023/12/15 02:48:32;;;;;;;43.83;22.38;;;;;;;3.81;89.10;99974.31;5087467;28;20115;-77
2023/12/15 02:50:58;;;;;;;47.28;23.77;;;;;;;4.08;89.11;99973.75;5083577;28;20115;-77
2023/12/15 02:53:23;;;;;;;46.78;24.10;;;;;;;3.97;88.91;99979.47;5087858;28;20107;-78
2023/12/15 02:55:49;;;;;;;44.88;22.42;;;;;;;4.08;89.60;99988.78;5090182;28;20040;-78
2023/12/15 02:58:15;;;;;;;48.22;22.75;;;;;;;4.09;89.29;99974.53;5091097;28;20054;-77
2023/12/15 03:00:41;;;;;;;44.92;23.02;;;;;;;4.09;88.98;99979.81;5083741;28;20021;-79
2023/12/15 03:03:06;;;;;;;46.75;22.73;;;;;;;4.10;88.30;99970.91;5086443;28;20338;-78
2023/12/15 03:05:32;;;;;;;46.92;22.67;;;;;;;4.16;88.63;99972.84;5088780;28;20036;-77
2023/12/15 03:07:57;;;;;;;47.65;23.38;;;;;;;4.13;88.76;99971.38;5086058;28;20088;-77
2023/12/15 03:10:22;;;;;;;45.67;22.65;;;;;;;4.18;88.79;99976.94;5087659;28;20028;-77
2023/12/15 03:12:48;;;;;;;49.30;21.98;;;;;;;3.98;88.76;99981.09;5090504;28;20012;-79
2023/12/15 03:15:13;;;;;;;48.28;23.02;;;;;;;3.88;88.93;99982.34;5065553;28;20033;-79
2023/12/15 03:17:39;;;;;;;44.42;20.90;;;;;;;4.26;88.67;99981.34;5085585;28;20066;-77
2023/12/15 03:20:06;;;;;;;44.97;21.98;;;;;;;4.23;88.71;99982.53;5087169;28;20048;-78
2023/12/15 03:22:32;;;;;;;48.22;22.63;;;;;;;4.04;88.52;99993.56;5086776;28;20024;-78
2023/12/15 03:24:57;;;;;;;45.42;22.50;;;;;;;4.15;89.29;99984.41;5089269;28;20035;-78
2023/12/15 03:27:23;;;;;;;47.72;22.75;;;;;;;4.13;88.12;99978.50;5092539;28;20032;-79
2023/12/15 03:29:49;;;;;;;46.72;21.98;;;;;;;3.78;87.93;99991.31;5084150;28;20047;-77
2023/12/15 03:32:14;;;;;;;47.13;22.02;;;;;;;4.05;89.79;99987.31;5084803;28;20031;-77
2023/12/15 03:34:39;;;;;;;50.55;23.77;;;;;;;4.17;88.77;99977.13;5084626;28;20081;-77
2023/12/15 03:37:05;;;;;;;45.55;22.50;;;;;;;4.24;88.55;99989.44;5085384;28;20106;-77
2023/12/15 03:39:30;;;;;;;43.22;20.90;;;;;;;4.33;88.30;99995.47;5081318;28;20407;-78
2023/12/15 03:41:55;;;;;;;38.70;19.75;;;;;;;4.29;87.94;100002.09;5082773;28;20049;-77
2023/12/15 03:44:21;;;;;;;41.33;21.92;;;;;;;4.23;88.01;100000.19;5086907;28;20498;-77
2023/12/15 03:46:46;;;;;;;39.45;22.15;;;;;;;4.26;87.76;100000.63;5087644;28;20020;-77
2023/12/15 03:49:12;;;;;;;38.80;19.10;;;;;;;4.24;88.15;99997.34;5080377;28;20370;-78
2023/12/15 03:51:37;;;;;;;44.03;20.42;;;;;;;4.28;88.54;100003.13;5084969;28;20454;-77
2023/12/15 03:54:02;;;;;;;43.03;20.42;;;;;;;4.23;87.83;100008.13;5090692;28;20440;-78
2023/12/15 03:56:28;;;;;;;41.80;20.58;;;;;;;4.25;88.40;99999.00;5085154;28;20032;-77
2023/12/15 03:58:53;;;;;;;40.85;21.42;;;;;;;4.24;88.74;100010.56;5089216;28;20036;-77
2023/12/15 04:01:19;;;;;;;44.90;20.67;;;;;;;4.29;87.23;100010.84;5087283;28;20493;-79
2023/12/15 04:03:44;;;;;;;40.42;20.75;;;;;;;4.15;87.77;100019.56;5088565;28;20139;-78
2023/12/15 04:06:09;;;;;;;41.33;20.50;;;;;;;4.12;88.28;100017.28;5081991;28;20124;-77
2023/12/15 04:08:35;;;;;;;40.60;20.30;;;;;;;4.14;88.12;100019.75;5087382;28;20037;-78
2023/12/15 04:11:00;;;;;;;37.25;20.13;;;;;;;4.20;88.38;100026.94;5081959;28;20036;-78
2023/12/15 04:13:26;;;;;;;40.33;21.30;;;;;;;4.21;88.41;100028.63;5081691;28;20399;-78
2023/12/15 04:15:52;;;;;;;45.00;21.33;;;;;;;4.14;88.25;100020.59;5086496;28;20556;-78
2023/12/15 04:18:17;;;;;;;41.03;20.65;;;;;;;4.20;87.55;100025.13;5088261;28;20143;-78
2023/12/15 04:20:43;;;;;;;40.05;21.45;;;;;;;4.00;88.09;100029.28;5088249;28;20032;-78
2023/12/15 04:23:08;;;;;;;43.33;20.13;;;;;;;4.06;88.88;100033.88;5088985;28;20024;-78
2023/12/15 04:25:33;;;;;;;35.80;19.05;;;;;;;4.03;89.32;100028.94;5085205;28;20078;-77
2023/12/15 04:27:59;;;;;;;36.03;19.45;;;;;;;4.10;89.20;100036.97;5084220;28;20036;-77
2023/12/15 04:30:24;;;;;;;39.53;20.60;;;;;;;4.15;88.37;100045.19;5082703;28;21993;-76
2023/12/15 04:32:50;;;;;;;41.10;20.45;;;;;;;4.15;89.00;100045.97;5080612;28;20024;-77
2023/12/15 04:35:15;;;;;;;41.40;21.08;;;;;;;4.20;87.88;100051.56;5051100;28;20028;-77
2023/12/15 04:37:46;;;;;;;42.10;21.20;;;;;;;4.22;87.71;100039.00;5086958;28;20050;-77
2023/12/15 04:40:15;;;;;;;40.47;20.20;;;;;;;3.97;88.98;100045.50;5083826;28;20031;-77
2023/12/15 04:42:41;;;;;;;37.83;19.70;;;;;;;4.01;89.27;100038.84;5087804;28;20035;-77
2023/12/15 04:45:07;;;;;;;39.78;20.05;;;;;;;3.99;88.98;100035.56;5085467;28;20041;-76
2023/12/15 04:47:33;;;;;;;45.90;21.48;;;;;;;3.78;90.21;100045.94;5087529;28;20024;-77
2023/12/15 04:49:58;;;;;;;38.30;19.48;;;;;;;3.87;89.55;100036.16;5088707;28;20028;-77
2023/12/15 04:52:23;;;;;;;42.38;19.73;;;;;;;3.98;89.78;100041.84;5074442;28;20024;-77
2023/12/15 04:54:49;;;;;;;41.90;19.52;;;;;;;3.95;89.68;100042.22;5088899;28;20040;-77
2023/12/15 04:57:14;;;;;;;39.08;18.83;;;;;;;4.04;89.99;100038.47;5095311;28;20093;-77
2023/12/15 04:59:41;;;;;;;43.50;21.63;;;;;;;3.98;89.40;100041.84;5075352;28;20040;-76
2023/12/15 05:02:06;;;;;;;42.40;20.27;;;;;;;3.96;90.11;100038.56;5080645;28;20147;-77
2023/12/15 05:04:32;;;;;;;41.65;21.50;;;;;;;3.49;89.14;100040.53;5093343;28;20116;-77
2023/12/15 05:06:57;;;;;;;48.28;22.60;;;;;;;3.56;90.31;100054.69;5094045;28;20062;-77
2023/12/15 05:09:23;;;;;;;46.53;21.20;;;;;;;3.69;90.83;100054.94;5088708;28;20039;-77
2023/12/15 05:11:48;;;;;;;43.58;20.92;;;;;;;3.96;90.35;100051.75;5088985;28;20496;-77
2023/12/15 05:14:13;;;;;;;39.78;19.08;;;;;;;4.05;90.04;100058.63;5095906;28;20536;-76
2023/12/15 05:16:39;;;;;;;44.65;22.17;;;;;;;3.73;89.58;100053.56;5091289;28;20444;-77
2023/12/15 05:19:04;;;;;;;41.65;20.77;;;;;;;3.96;90.20;100050.94;5091672;28;20152;-78
2023/12/15 05:21:30;;;;;;;40.13;19.08;;;;;;;4.05;89.65;100044.59;5088100;28;20028;-77
2023/12/15 05:23:58;;;;;;;39.80;19.00;;;;;;;4.05;90.02;100047.22;5086663;28;20063;-78
2023/12/15 05:26:27;;;;;;;37.08;20.55;;;;;;;4.03;90.26;100051.88;5094405;28;20086;-79
2023/12/15 05:28:52;;;;;;;38.60;19.40;;;;;;;3.93;89.79;100056.56;5091536;28;20030;-77
2023/12/15 05:31:18;;;;;;;39.90;19.73;;;;;;;4.04;89.76;100058.81;5093826;28;20476;-77
2023/12/15 05:33:44;;;;;;;41.53;19.33;;;;;;;4.01;89.80;100062.63;5092355;28;20028;-78
2023/12/15 05:36:21;;;;;;;34.35;18.77;;;;;;;4.13;89.32;100077.03;5094159;28;20037;-77
2023/12/15 05:38:48;;;;;;;36.28;18.65;;;;;;;4.11;89.78;100080.84;5086720;28;20142;-77
2023/12/15 05:41:13;;;;;;;35.97;18.80;;;;;;;4.19;89.58;100076.34;5088732;28;20484;-77
2023/12/15 05:43:38;;;;;;;33.75;17.17;;;;;;;4.17;88.84;100078.31;5088012;28;20020;-78
2023/12/15 05:46:04;;;;;;;36.17;18.42;;;;;;;4.28;88.85;100085.03;5088522;28;20131;-78
2023/12/15 05:48:29;;;;;;;34.45;17.92;;;;;;;4.17;88.76;100094.19;5096681;28;20571;-77
2023/12/15 05:50:55;;;;;;;38.35;18.50;;;;;;;4.22;88.57;100091.84;5095269;28;20492;-76
2023/12/15 05:53:21;;;;;;;33.65;17.92;;;;;;;4.33;88.14;100083.50;5084493;28;20032;-77
2023/12/15 05:55:47;;;;;;;31.70;18.13;;;;;;;4.28;88.28;100090.31;5094480;28;20024;-77
2023/12/15 05:58:13;;;;;;;37.03;18.77;;;;;;;3.92;88.87;100087.44;5096331;28;20485;-78
2023/12/15 06:00:39;;;;;;;37.78;19.13;;;;;;;3.60;89.75;100091.09;5073457;28;20058;-79
2023/12/15 06:03:04;;;;;;;34.60;19.65;;;;;;;3.65;89.70;100086.13;5088327;28;20395;-78
2023/12/15 06:05:34;;;;;;;37.75;18.15;;;;;;;3.69;90.12;100094.53;5092143;28;20092;-79
2023/12/15 06:08:00;;;;;;;38.65;19.73;;;;;;;3.73;90.51;100101.09;5088539;28;20165;-77
2023/12/15 06:10:25;;;;;;;36.20;18.85;;;;;;;3.40;90.81;100102.25;5077920;28;20039;-77
2023/12/15 06:12:51;;;;;;;35.42;18.20;;;;;;;3.84;91.77;100105.16;5083925;28;20028;-77
2023/12/15 06:15:16;;;;;;;40.42;18.83;;;;;;;3.50;90.75;100108.13;5090064;28;20031;-77
2023/12/15 06:17:41;;;;;;;43.58;19.30;;;;;;;3.90;91.92;100110.56;5082931;28;20032;-77
2023/12/15 06:20:08;;;;;;;40.42;17.95;;;;;;;4.05;90.38;100111.47;5081079;28;20512;-77
2023/12/15 06:22:34;;;;;;;37.28;18.80;;;;;;;3.83;90.39;100114.06;5087601;28;20034;-77
2023/12/15 06:24:59;;;;;;;42.05;18.27;;;;;;;4.05;90.52;100106.16;5087128;28;20496;-77
2023/12/15 06:27:24;;;;;;;33.58;17.42;;;;;;;3.98;90.03;100097.28;5086536;28;20036;-77
2023/12/15 06:29:50;;;;;;;38.65;18.73;;;;;;;3.96;90.68;100099.28;5093988;28;20028;-77
2023/12/15 06:32:15;;;;;;;37.55;18.08;;;;;;;3.97;90.92;100100.94;5092522;28;20034;-77
2023/12/15 06:34:42;;;;;;;35.55;16.63;;;;;;;4.09;90.25;100086.31;5056682;28;20024;-78
2023/12/15 06:37:08;;;;;;;37.50;18.52;;;;;;;3.96;90.11;100096.66;5089945;28;20099;-79
2023/12/15 06:39:33;;;;;;;37.03;17.77;;;;;;;3.94;89.93;100100.47;5096407;28;20460;-79
2023/12/15 06:42:02;;;;;;;38.33;18.13;;;;;;;3.55;90.46;100104.00;5094645;28;20393;-78
2023/12/15 06:44:28;;;;;;;32.58;16.33;;;;;;;3.61;91.60;100111.22;5088971;28;20024;-78
2023/12/15 06:46:53;;;;;;;34.17;18.20;;;;;;;3.58;91.45;100113.41;5089008;28;20107;-79
2023/12/15 06:49:19;;;;;;;34.03;16.52;;;;;;;3.49;91.27;100127.63;5081039;28;20035;-79
2023/12/15 06:51:45;;;;;;;34.55;16.15;;;;;;;3.77;91.73;100128.81;5100457;28;20063;-79
2023/12/15 06:54:10;;;;;;;35.83;16.98;;;;;;;4.06;90.94;100146.63;5072575;28;20036;-79
2023/12/15 06:56:39;;;;;;;33.97;16.45;;;;;;;3.77;90.26;100139.34;5093893;28;20032;-79
2023/12/15 06:59:04;;;;;;;34.53;16.10;;;;;;;3.52;91.79;100143.09;5090507;28;20036;-78
2023/12/15 07:01:30;;;;;;;34.88;16.48;;;;;;;3.59;91.82;100146.69;5089067;28;20034;-78
2023/12/15 07:03:55;;;;;;;36.03;17.55;;;;;;;3.43;91.07;100149.44;5086153;28;20040;-79
2023/12/15 07:06:20;;;;;;;32.67;16.48;;;;;;;3.45;91.74;100137.69;5080271;28;20386;-77
2023/12/15 07:08:53;;;;;;;39.95;17.77;;;;;;;3.73;91.74;100149.44;5092550;28;20140;-77
2023/12/15 07:11:19;;;;;;;36.92;16.45;;;;;;;3.53;91.18;100155.31;5085718;28;20051;-78
2023/12/15 07:16:17;;;;;;;37.28;15.80;;;;;;;3.61;91.14;100164.00;5050564;28;20048;-81
2023/12/15 07:18:43;;;;;;;36.70;16.17;;;;;;;3.49;91.70;100168.03;5045955;28;20408;-81
2023/12/15 07:21:08;;;;;;;36.83;17.10;;;;;;;3.58;91.16;100174.91;5047153;28;20499;-81
2023/12/15 07:23:36;;;;;;;34.00;15.77;;;;;;;3.66;90.88;100163.50;5045568;28;20072;-81
2023/12/15 07:26:02;;;;;;;35.20;17.23;;;;;;;3.56;91.82;100170.81;5050158;28;20033;-81
2023/12/15 07:28:27;;;;;;;33.45;15.85;;;;;;;3.73;92.14;100175.03;5050299;28;20028;-81
2023/12/15 07:30:52;;;;;;;37.30;19.25;;;;;;;3.37;90.65;100158.00;5046427;28;20040;-80
2023/12/15 07:33:18;;;;;;;30.92;16.17;;;;;;;3.61;92.30;100160.53;5047329;28;20051;-81
2023/12/15 07:35:43;;;;;;;26.98;15.60;;;;;;;3.53;92.50;100168.50;5043174;28;20392;-80
2023/12/15 07:38:10;;;;;;;27.67;15.32;;;;;;;3.60;91.30;100169.47;5049777;28;20041;-80
2023/12/15 07:40:35;;;;;;;33.70;17.42;;;;;;;3.74;90.87;100185.41;5039130;28;20033;-80
2023/12/15 07:43:02;;;;;;;33.95;16.27;;;;;;;3.75;91.41;100178.31;5042340;28;21548;-81
2023/12/15 07:45:28;;;;;;;33.05;17.13;;;;;;;3.91;90.83;100209.91;5041777;28;20494;-80
2023/12/15 07:47:57;;;;;;;37.08;18.05;;;;;;;3.83;90.20;100199.41;5047698;28;20103;-81
2023/12/15 07:50:23;;;;;;;39.38;17.25;;;;;;;3.88;90.81;100178.59;5048586;28;20136;-80
2023/12/15 07:52:49;;;;;;;29.95;15.45;;;;;;;3.77;91.25;100182.44;5047034;28;20112;-80
2023/12/15 07:55:14;;;;;;;37.30;17.30;;;;;;;3.33;91.27;100199.75;5041696;28;20123;-80
2023/12/15 07:57:41;;;;;;;35.00;16.80;;;;;;;3.77;92.40;100203.56;5046563;28;20132;-80
2023/12/15 08:00:10;;;;;;;33.83;17.67;;;;;;;3.39;90.89;100191.16;5033723;28;20037;-80
2023/12/15 08:02:36;;;;;;;37.22;17.90;;;;;;;3.53;90.38;100195.72;5031769;28;20129;-80
2023/12/15 08:05:01;;;;;;;38.03;19.05;;;;;;;3.50;91.15;100205.78;5010849;28;20121;-80
2023/12/15 08:07:26;;;;;;;38.13;17.95;;;;;;;3.73;91.77;100207.50;5013196;28;20064;-80
2023/12/15 08:09:52;;;;;;;33.42;16.20;;;;;;;3.56;92.18;100216.47;5012346;28;20107;-80
2023/12/15 08:12:17;;;;;;;42.50;19.95;;;;;;;3.88;91.36;100210.28;5006495;28;20387;-80
2023/12/15 08:14:43;;;;;;;37.58;17.35;;;;;;;3.69;91.98;100218.63;5028663;28;20037;-81
2023/12/15 08:17:09;;;;;;;31.42;16.63;;;;;;;4.19;91.05;100221.69;5043159;28;20044;-80
2023/12/15 08:19:34;;;;;;;32.20;16.42;;;;;;;3.94;92.19;100221.94;5025331;28;20354;-81
2023/12/15 08:21:59;;;;;;;32.95;16.60;;;;;;;4.05;91.08;100224.22;5011971;28;20465;-81
2023/12/15 08:24:26;;;;;;;31.50;15.25;;;;;;;4.18;91.31;100219.19;5025349;28;20037;-80
2023/12/15 08:26:53;;;;;;;34.08;16.42;;;;;;;4.04;90.44;100218.09;5026426;28;20108;-81
2023/12/15 08:29:19;;;;;;;28.05;15.32;;;;;;;4.07;89.95;100230.97;5030346;28;20032;-81
2023/12/15 08:31:44;;;;;;;30.83;14.60;;;;;;;3.97;90.81;100225.09;5029891;28;20381;-81
2023/12/15 08:34:10;;;;;;;31.75;17.38;;;;;;;4.19;91.35;100253.38;5024097;28;20047;-80
2023/12/15 08:36:35;;;;;;;32.03;15.18;;;;;;;4.30;91.48;100252.16;5029376;28;20037;-81
2023/12/15 08:39:00;;;;;;;32.42;16.65;;;;;;;3.95;91.41;100239.47;5025587;28;20029;-80
2023/12/15 08:41:26;;;;;;;29.70;14.13;;;;;;;4.11;90.92;100240.19;5028150;28;20090;-81
2023/12/15 08:43:51;;;;;;;37.10;16.15;;;;;;;4.38;90.74;100258.22;5029430;28;20061;-80
2023/12/15 08:46:17;;;;;;;34.92;15.43;;;;;;;4.40;89.99;100258.88;5029122;28;20029;-81
2023/12/15 08:48:42;;;;;;;29.85;14.55;;;;;;;4.13;90.28;100245.34;5030307;28;20064;-80
2023/12/15 08:51:07;;;;;;;29.67;14.77;;;;;;;4.13;90.43;100261.97;4993995;28;20033;-81
2023/12/15 08:53:33;;;;;;;28.77;14.80;;;;;;;4.25;90.63;100268.53;5026435;28;20067;-80
2023/12/15 08:55:58;;;;;;;28.73;13.77;;;;;;;4.17;90.98;100275.69;5022603;28;20068;-81
2023/12/15 08:58:24;;;;;;;28.42;14.63;;;;;;;4.22;91.23;100276.81;5025555;28;20512;-80
2023/12/15 09:00:50;;;;;;;31.80;12.50;;;;;;;4.37;90.99;100284.81;5025297;28;20037;-80
2023/12/15 09:03:15;;;;;;;29.83;14.23;;;;;;;4.33;91.26;100287.00;5026651;28;20044;-81
2023/12/15 09:05:41;;;;;;;29.25;12.85;;;;;;;4.27;90.09;100278.94;5027044;28;20030;-81
2023/12/15 09:08:06;;;;;;;27.60;13.00;;;;;;;4.32;90.53;100301.22;5010674;28;20485;-81
2023/12/15 09:10:41;;;;;;;27.52;14.70;;;;;;;4.38;90.33;100308.44;5041275;28;20393;-81
2023/12/15 09:13:06;;;;;;;33.15;14.75;;;;;;;4.34;90.87;100328.28;5014619;28;20086;-81
2023/12/15 09:15:32;;;;;;;26.55;13.02;;;;;;;4.42;90.37;100328.25;5026771;28;20029;-80
2023/12/15 09:17:57;;;;;;;29.33;14.00;;;;;;;4.39;90.98;100330.44;5041812;28;20044;-81
2023/12/15 09:20:24;;;;;;;29.15;14.18;;;;;;;4.42;90.42;100338.00;5007354;28;20536;-81
2023/12/15 09:22:49;;;;;;;33.80;14.07;;;;;;;4.37;90.97;100327.94;5025081;28;20033;-81
2023/12/15 09:25:14;;;;;;;36.80;16.55;;;;;;;4.39;90.55;100344.44;5013530;28;20037;-81
2023/12/15 09:27:40;;;;;;;30.45;14.65;;;;;;;4.34;91.47;100338.03;5025082;28;20037;-81
2023/12/15 09:30:06;;;;;;;32.15;15.63;;;;;;;4.29;91.23;100329.78;5027532;28;20137;-81
2023/12/15 09:32:31;;;;;;;35.47;16.65;;;;;;;4.20;91.06;100315.78;5029868;28;20390;-81
2023/12/15 09:34:57;;;;;;;38.17;16.25;;;;;;;4.28;91.16;100328.97;5029946;28;20040;-81
2023/12/15 09:37:22;;;;;;;32.70;16.60;;;;;;;4.29;91.32;100340.38;5035032;28;20076;-81
2023/12/15 09:39:48;;;;;;;33.78;16.17;;;;;;;4.37;91.37;100353.53;5030753;28;20104;-81
2023/12/15 09:42:14;;;;;;;38.08;17.30;;;;;;;4.28;91.51;100352.75;5033625;28;20108;-81
2023/12/15 09:44:39;;;;;;;32.45;15.65;;;;;;;4.35;90.85;100351.06;5033562;28;20148;-81
2023/12/15 09:47:05;;;;;;;41.25;18.40;;;;;;;4.39;91.93;100370.88;5030122;28;20519;-80
2023/12/15 09:49:32;;;;;;;37.78;19.52;;;;;;;4.35;91.61;100372.22;5026040;28;20033;-82
2023/12/15 09:52:02;;;;;;;39.30;18.85;;;;;;;4.44;91.62;100373.00;5029222;28;20027;-82
2023/12/15 09:54:27;;;;;;;39.42;18.73;;;;;;;4.47;91.67;100375.31;5029579;28;20396;-81
2023/12/15 09:56:53;;;;;;;34.50;18.63;;;;;;;4.42;91.37;100377.63;5029579;28;20029;-81
2023/12/15 09:59:19;;;;;;;39.28;18.88;;;;;;;4.50;91.93;100381.06;5030020;28;20064;-81
2023/12/15 10:01:45;;;;;;;39.08;17.45;;;;;;;4.40;91.75;100391.03;4997156;28;20485;-81
2023/12/15 10:04:10;;;;;;;44.55;19.75;;;;;;;4.50;91.14;100394.28;5022782;28;20041;-81
2023/12/15 10:06:36;;;;;;;46.35;20.42;;;;;;;4.37;91.13;100380.78;5042602;28;20103;-81
2023/12/15 10:09:09;;;;;;;38.20;19.80;;;;;;;4.49;91.57;100403.22;5040878;28;20033;-81
2023/12/15 10:11:36;;;;;;;39.70;17.48;;;;;;;4.50;91.35;100391.66;5026136;28;20025;-82
2023/12/15 10:14:04;;;;;;;33.85;17.58;;;;;;;4.52;91.21;100387.00;5028313;28;20126;-81
2023/12/15 10:16:30;;;;;;;37.08;17.75;;;;;;;4.55;90.92;100402.53;5027373;28;20041;-81
2023/12/15 10:18:55;;;;;;;37.05;17.88;;;;;;;4.69;90.64;100431.91;5029372;28;20046;-81
2023/12/15 10:21:21;;;;;;;37.50;18.17;;;;;;;4.62;91.27;100420.34;5029805;28;20744;-82
2023/12/15 10:23:46;;;;;;;35.08;18.30;;;;;;;4.61;91.02;100426.66;5012825;28;20092;-81
2023/12/15 10:26:12;;;;;;;35.38;16.73;;;;;;;4.70;90.91;100420.31;4995113;28;20041;-81
2023/12/15 10:28:39;;;;;;;37.35;19.95;;;;;;;4.64;91.72;100432.41;5029848;28;20060;-81
2023/12/15 10:31:08;;;;;;;35.25;18.83;;;;;;;4.57;91.73;100424.34;5027423;28;20026;-81
2023/12/15 10:33:34;;;;;;;38.42;17.50;;;;;;;4.73;90.59;100433.22;5031272;28;20420;-81
2023/12/15 10:36:02;;;;;;;40.17;18.67;;;;;;;4.86;90.80;100422.88;5012726;28;20492;-81
2023/12/15 10:38:29;;;;;;;35.30;16.88;;;;;;;4.75;91.20;100434.69;5031570;28;20152;-81
2023/12/15 10:40:56;;;;;;;30.50;17.25;;;;;;;4.72;91.52;100415.69;5038910;28;20025;-80
2023/12/15 10:43:22;;;;;;;33.70;17.27;;;;;;;4.81;91.10;100414.66;5019484;28;20666;-81
2023/12/15 10:45:50;;;;;;;36.85;18.13;;;;;;;4.82;91.55;100414.50;5028808;28;20029;-80
2023/12/15 10:48:18;;;;;;;42.60;18.42;;;;;;;4.77;91.58;100406.25;5028722;28;20029;-81
2023/12/15 10:50:45;;;;;;;37.25;17.27;;;;;;;4.80;91.57;100418.31;5030222;28;20044;-81
2023/12/15 10:53:13;;;;;;;38.63;18.23;;;;;;;4.68;91.59;100411.72;5033509;28;20017;-81
2023/12/15 10:55:43;;;;;;;43.92;19.88;;;;;;;4.88;91.48;100408.50;5029795;28;20034;-81
2023/12/15 10:58:10;;;;;;;42.42;18.73;;;;;;;4.84;91.59;100415.13;5015501;28;20034;-81
2023/12/15 11:00:36;;;;;;;38.60;17.42;;;;;;;4.86;91.63;100413.16;5033293;28;20392;-81
2023/12/15 11:03:05;;;;;;;35.75;18.88;;;;;;;4.90;92.05;100421.53;5031658;28;20053;-80
2023/12/15 11:05:32;;;;;;;32.22;16.33;;;;;;;4.98;91.34;100417.03;5030377;28;20033;-81
2023/12/15 11:07:59;;;;;;;34.72;17.20;;;;;;;5.00;91.75;100428.25;5029585;28;20036;-81
2023/12/15 11:10:25;;;;;;;39.20;18.15;;;;;;;4.93;91.56;100424.69;5017540;28;20034;-81
2023/12/15 11:12:52;;;;;;;40.88;19.52;;;;;;;4.98;92.10;100426.81;5030078;28;20443;-80
2023/12/15 11:15:18;;;;;;;49.42;20.25;;;;;;;4.98;91.87;100421.53;5030881;28;20044;-81